NRB Airport (Mayport Ns (Adm David L Mcdonald Field)) Information

FAA: NRB - ICAO: KNRB

NRB Airport Location

State Florida
County Duval
City Mayport
NRB Airport is 1 mile northwest of Mayport, FL.
Latitude 30-23-28.9471N
Longitude 081-25-28.2762W
Elevation 14ft

KNRB Airport METARs

METAR KNRB 181252Z 31009KT 10SM FEW050 03/00 A3022 RMK AO2 SLP232 T00330000
Altimeter 30.22"
Temperature 3.3°C (37.9°F)
Wind 310° at 9KT
Clouds few at 5,000ft
Visibility 10.0mi
Time observed: 2022-01-18T12:52:00Z

NRB Airport Details

Status Operational
Activation N/A
Ownership Military - Navy
Usage Private
Chart JACKSONVILLE
ATC on-site Yes
Beacon schedule sunset-sunrise
Beacon color split clear green

NRB Airport Contacts

Owner US NAVY
Owner address OCEANOGRAPHIC OFC-CODE 3142, WASHINGTON, DC 20373
Owner phone N/A
Manager DAVID GAY
Manager address 808 W. NEW HAMPSHIRE STREET, ORLANDO, FL 32804
Manager phone 407-234-6986

NRB Airport (Mayport Ns (Adm David L Mcdonald Field)) Radio Frequencies

NRB (Airport) Radio Frequencies

UNICOM N/A
Common traffic advisory frequency (CTAF) N/A